FDX1913 KMSP-KMIA
Flight info
| Callsign | FDX1913 |
|---|---|
| Flight time | N/A |
| Altitude | 4000 |
| Route | RST1 ALO J233 CNOTA/N0471F270 J233 SKBOZ/N0480F330 Q19 HITMN ACORI FROGZ4 |
| Aircraft | B77F/H-VGDW/C |
Departure
| Time | N/A |
|---|---|
| Airport | Minneapolis–Saint Paul International Airport / Wold–Chamberlain Field (KMSP) |
Arrival
| Time | 2026-05-03 20:44 |
|---|---|
| Airport | Miami International Airport (KMIA) |
| Time | Latitude | Longitude | Altitude | Speed | Heading |
|---|---|---|---|---|---|
| 2026-05-03 20:15 | 27.65220 | -82.64672 | 39065 ft | 439 kts | 182° |
| 2026-05-03 20:15 | 27.59194 | -82.63486 | 39073 ft | 440 kts | 182° |
| 2026-05-03 20:16 | 27.53157 | -82.62298 | 39077 ft | 442 kts | 181° |
| 2026-05-03 20:16 | 27.47112 | -82.60685 | 39080 ft | 449 kts | 177° |
| 2026-05-03 20:17 | 27.41074 | -82.58820 | 39074 ft | 450 kts | 177° |
| 2026-05-03 20:17 | 27.35028 | -82.56990 | 39075 ft | 449 kts | 178° |
| 2026-05-03 20:18 | 27.28996 | -82.55212 | 39080 ft | 448 kts | 178° |
| 2026-05-03 20:18 | 27.22952 | -82.53438 | 38685 ft | 452 kts | 177° |
| 2026-05-03 20:18 | 27.19919 | -82.52552 | 38253 ft | 448 kts | 178° |
| 2026-05-03 20:19 | 27.16921 | -82.51671 | 37853 ft | 443 kts | 177° |
| 2026-05-03 20:19 | 27.13960 | -82.50799 | 37453 ft | 437 kts | 178° |
| 2026-05-03 20:19 | 27.11074 | -82.49952 | 37047 ft | 432 kts | 178° |
| 2026-05-03 20:19 | 27.08119 | -82.49093 | 36518 ft | 437 kts | 178° |
| 2026-05-03 20:20 | 27.05148 | -82.48245 | 36024 ft | 456 kts | 177° |
| 2026-05-03 20:20 | 27.01997 | -82.47338 | 35521 ft | 465 kts | 177° |
| 2026-05-03 20:20 | 26.98887 | -82.46418 | 35002 ft | 462 kts | 176° |
| 2026-05-03 20:20 | 26.95833 | -82.45516 | 34476 ft | 459 kts | 176° |
| 2026-05-03 20:21 | 26.92763 | -82.44557 | 33939 ft | 462 kts | 171° |
| 2026-05-03 20:21 | 26.89825 | -82.42900 | 33346 ft | 486 kts | 153° |
| 2026-05-03 20:21 | 26.87235 | -82.40444 | 32998 ft | 487 kts | 148° |
| 2026-05-03 20:21 | 26.84722 | -82.37921 | 32604 ft | 485 kts | 148° |
| 2026-05-03 20:22 | 26.82203 | -82.35410 | 32241 ft | 485 kts | 148° |
| 2026-05-03 20:22 | 26.79667 | -82.32919 | 31873 ft | 484 kts | 148° |
| 2026-05-03 20:22 | 26.77131 | -82.30459 | 31515 ft | 481 kts | 148° |
| 2026-05-03 20:22 | 26.74596 | -82.28021 | 31165 ft | 478 kts | 148° |
| 2026-05-03 20:23 | 26.72077 | -82.25611 | 30820 ft | 475 kts | 148° |
| 2026-05-03 20:23 | 26.69565 | -82.23213 | 30455 ft | 473 kts | 148° |
| 2026-05-03 20:23 | 26.67076 | -82.20836 | 30107 ft | 469 kts | 147° |
| 2026-05-03 20:23 | 26.64600 | -82.18472 | 29653 ft | 466 kts | 147° |
| 2026-05-03 20:24 | 26.62140 | -82.16127 | 29246 ft | 463 kts | 147° |
| 2026-05-03 20:24 | 26.59694 | -82.13794 | 28854 ft | 460 kts | 147° |
| 2026-05-03 20:24 | 26.57267 | -82.11476 | 28476 ft | 457 kts | 147° |
| 2026-05-03 20:24 | 26.54856 | -82.09177 | 28097 ft | 454 kts | 147° |
| 2026-05-03 20:25 | 26.52464 | -82.06895 | 27702 ft | 452 kts | 147° |
| 2026-05-03 20:25 | 26.50108 | -82.04572 | 27324 ft | 450 kts | 146° |
| 2026-05-03 20:25 | 26.47766 | -82.02209 | 26467 ft | 462 kts | 145° |
| 2026-05-03 20:25 | 26.45446 | -81.99861 | 25790 ft | 476 kts | 145° |
| 2026-05-03 20:26 | 26.42983 | -81.97367 | 25168 ft | 481 kts | 144° |
| 2026-05-03 20:26 | 26.40515 | -81.94862 | 24546 ft | 478 kts | 144° |
| 2026-05-03 20:26 | 26.38059 | -81.92374 | 23953 ft | 475 kts | 144° |
| 2026-05-03 20:26 | 26.35621 | -81.89910 | 23310 ft | 471 kts | 144° |
| 2026-05-03 20:27 | 26.33200 | -81.87474 | 22626 ft | 467 kts | 144° |
| 2026-05-03 20:27 | 26.30799 | -81.85066 | 22049 ft | 462 kts | 144° |
| 2026-05-03 20:27 | 26.28443 | -81.82700 | 21890 ft | 448 kts | 144° |
| 2026-05-03 20:27 | 26.26162 | -81.80410 | 21698 ft | 436 kts | 144° |
| 2026-05-03 20:28 | 26.23983 | -81.78112 | 21504 ft | 428 kts | 138° |
| 2026-05-03 20:28 | 26.22345 | -81.75333 | 21146 ft | 430 kts | 120° |
| 2026-05-03 20:28 | 26.21107 | -81.72325 | 21070 ft | 429 kts | 120° |
| 2026-05-03 20:28 | 26.19863 | -81.69301 | 21042 ft | 430 kts | 120° |
| 2026-05-03 20:29 | 26.18608 | -81.66298 | 21026 ft | 425 kts | 120° |
| 2026-05-03 20:29 | 26.17348 | -81.63338 | 21039 ft | 421 kts | 121° |
| 2026-05-03 20:29 | 26.16078 | -81.60399 | 21043 ft | 421 kts | 121° |
| 2026-05-03 20:29 | 26.14802 | -81.57470 | 21043 ft | 421 kts | 121° |
| 2026-05-03 20:30 | 26.13519 | -81.54533 | 21049 ft | 422 kts | 121° |
| 2026-05-03 20:30 | 26.12238 | -81.51599 | 20955 ft | 420 kts | 121° |
| 2026-05-03 20:30 | 26.10969 | -81.48688 | 20583 ft | 418 kts | 121° |
| 2026-05-03 20:30 | 26.09706 | -81.45787 | 20159 ft | 415 kts | 121° |
| 2026-05-03 20:31 | 26.08447 | -81.42903 | 19726 ft | 413 kts | 121° |
| 2026-05-03 20:31 | 26.07193 | -81.40037 | 19292 ft | 411 kts | 121° |
| 2026-05-03 20:31 | 26.05949 | -81.37189 | 18873 ft | 409 kts | 121° |
| 2026-05-03 20:31 | 26.04711 | -81.34349 | 18434 ft | 408 kts | 120° |
| 2026-05-03 20:32 | 26.03476 | -81.31514 | 17934 ft | 406 kts | 120° |
| 2026-05-03 20:32 | 26.02248 | -81.28695 | 17421 ft | 404 kts | 120° |
| 2026-05-03 20:32 | 26.01027 | -81.25895 | 16943 ft | 402 kts | 120° |
| 2026-05-03 20:32 | 25.99811 | -81.23110 | 16432 ft | 400 kts | 120° |
| 2026-05-03 20:33 | 25.98597 | -81.20331 | 15844 ft | 400 kts | 119° |
| 2026-05-03 20:33 | 25.97382 | -81.17550 | 15280 ft | 400 kts | 119° |
| 2026-05-03 20:33 | 25.96167 | -81.14773 | 14729 ft | 400 kts | 119° |
| 2026-05-03 20:33 | 25.94967 | -81.12031 | 14188 ft | 400 kts | 119° |
| 2026-05-03 20:34 | 25.93751 | -81.09256 | 13677 ft | 400 kts | 119° |
| 2026-05-03 20:34 | 25.92531 | -81.06471 | 13093 ft | 403 kts | 119° |
| 2026-05-03 20:34 | 25.91296 | -81.03660 | 12498 ft | 405 kts | 118° |
| 2026-05-03 20:34 | 25.90138 | -81.00809 | 11852 ft | 406 kts | 115° |
| 2026-05-03 20:35 | 25.89098 | -80.98035 | 11311 ft | 397 kts | 115° |
| 2026-05-03 20:35 | 25.88092 | -80.95295 | 11056 ft | 370 kts | 115° |
| 2026-05-03 20:35 | 25.87161 | -80.92745 | 10947 ft | 342 kts | 115° |
| 2026-05-03 20:35 | 25.86304 | -80.90379 | 10937 ft | 320 kts | 115° |
| 2026-05-03 20:36 | 25.85480 | -80.88098 | 10970 ft | 320 kts | 115° |
| 2026-05-03 20:36 | 25.84644 | -80.85789 | 10945 ft | 324 kts | 115° |
| 2026-05-03 20:36 | 25.83799 | -80.83460 | 10628 ft | 328 kts | 115° |
| 2026-05-03 20:36 | 25.82945 | -80.81112 | 10176 ft | 324 kts | 115° |
| 2026-05-03 20:37 | 25.82117 | -80.78830 | 9656 ft | 313 kts | 115° |
| 2026-05-03 20:37 | 25.81321 | -80.76627 | 9139 ft | 302 kts | 115° |
| 2026-05-03 20:37 | 25.80555 | -80.74499 | 8623 ft | 293 kts | 115° |
| 2026-05-03 20:37 | 25.79811 | -80.72424 | 8130 ft | 288 kts | 115° |
| 2026-05-03 20:38 | 25.79074 | -80.70367 | 7634 ft | 285 kts | 115° |
| 2026-05-03 20:38 | 25.78326 | -80.68288 | 7105 ft | 295 kts | 115° |
| 2026-05-03 20:38 | 25.77556 | -80.66151 | 6553 ft | 301 kts | 115° |
| 2026-05-03 20:38 | 25.76770 | -80.63980 | 6011 ft | 305 kts | 115° |
| 2026-05-03 20:39 | 25.76004 | -80.61861 | 5973 ft | 288 kts | 114° |
| 2026-05-03 20:39 | 25.75398 | -80.59803 | 5599 ft | 285 kts | 100° |
| 2026-05-03 20:39 | 25.75415 | -80.57583 | 5008 ft | 290 kts | 85° |
| 2026-05-03 20:39 | 25.75447 | -80.57245 | 4820 ft | 294 kts | 84° |
| 2026-05-03 20:40 | 25.75809 | -80.55020 | 4565 ft | 281 kts | 68° |
| 2026-05-03 20:40 | 25.76705 | -80.53111 | 4466 ft | 281 kts | 58° |
| 2026-05-03 20:40 | 25.77716 | -80.51243 | 4113 ft | 283 kts | 59° |
| 2026-05-03 20:40 | 25.78708 | -80.49389 | 3740 ft | 277 kts | 57° |
| 2026-05-03 20:41 | 25.79727 | -80.47578 | 3388 ft | 273 kts | 60° |
| 2026-05-03 20:41 | 25.80339 | -80.45682 | 3200 ft | 260 kts | 84° |
| 2026-05-03 20:41 | 25.80390 | -80.43669 | 2617 ft | 264 kts | 93° |
| 2026-05-03 20:41 | 25.80248 | -80.41674 | 2376 ft | 253 kts | 96° |
| 2026-05-03 20:42 | 25.80071 | -80.39763 | 2044 ft | 241 kts | 95° |
| 2026-05-03 20:42 | 25.80022 | -80.38022 | 1815 ft | 213 kts | 88° |
| 2026-05-03 20:42 | 25.80105 | -80.36452 | 1507 ft | 192 kts | 86° |
| 2026-05-03 20:42 | 25.80153 | -80.35043 | 1215 ft | 174 kts | 89° |
| 2026-05-03 20:43 | 25.80172 | -80.33741 | 789 ft | 163 kts | 88° |
| 2026-05-03 20:43 | 25.80213 | -80.32552 | 525 ft | 147 kts | 86° |
| 2026-05-03 20:43 | 25.80253 | -80.31409 | 358 ft | 152 kts | 86° |
| 2026-05-03 20:43 | 25.80291 | -80.30226 | 98 ft | 151 kts | 85° |
| 2026-05-03 20:44 | 25.80336 | -80.29145 | 30 ft | 122 kts | 88° |
| 2026-05-03 20:44 | 25.80364 | -80.28406 | 30 ft | 69 kts | 87° |
| 2026-05-03 20:44 | 25.80399 | -80.28077 | 27 ft | 16 kts | 69° |
| 2026-05-03 20:44 | 25.80416 | -80.28042 | 26 ft | 0 kts | 56° |
| 2026-05-03 20:45 | 25.80426 | -80.28027 | 25 ft | 4 kts | 51° |
| 2026-05-03 20:45 | 25.80494 | -80.27973 | 27 ft | 0 kts | 49° |